Time;durP1;ratioP1;P1;durP2;ratioP2;P2;SDS_P1;SDS_P2;PMS_P1;PMS_P2;Temp;Humidity;BMP_temperature;BMP_pressure;BME280_temperature;BME280_humidity;BME280_pressure;Samples;Min_cycle;Max_cycle;Signal;HPM_P1;HPM_P2
2023/07/08 00:00:10;;;;;;;2.95;2.50;;;;;;;;;;5114106;28;20059;-62
2023/07/08 00:02:37;;;;;;;5.83;2.77;;;;;;;;;;5108432;28;20381;-62
2023/07/08 00:05:04;;;;;;;5.70;3.00;;;;;;;;;;5113649;28;20047;-62
2023/07/08 00:07:32;;;;;;;4.63;3.00;;;;;;;;;;5113829;28;20058;-61
2023/07/08 00:09:59;;;;;;;3.97;3.00;;;;;;;;;;5107048;28;20056;-61
2023/07/08 00:12:26;;;;;;;5.28;3.08;;;;;;;;;;5113968;28;20055;-62
2023/07/08 00:14:52;;;;;;;4.80;2.53;;;;;;;;;;5113369;28;20055;-61
2023/07/08 00:17:19;;;;;;;5.57;3.13;;;;;;;;;;5106843;28;20047;-61
2023/07/08 00:19:47;;;;;;;4.68;3.13;;;;;;;;;;5111298;28;20063;-62
2023/07/08 00:22:14;;;;;;;4.60;2.80;;;;;;;;;;5105232;28;20063;-62
2023/07/08 00:24:43;;;;;;;3.53;2.85;;;;;;;;;;5105358;28;20044;-62
2023/07/08 00:27:12;;;;;;;4.55;2.80;;;;;;;;;;5090980;28;20434;-61
2023/07/08 00:29:38;;;;;;;3.50;2.72;;;;;;;;;;5096442;28;20051;-62
2023/07/08 00:32:10;;;;;;;3.88;3.00;;;;;;;;;;5091615;28;20063;-61
2023/07/08 00:34:37;;;;;;;4.32;2.97;;;;;;;;;;5113549;28;20079;-62
2023/07/08 00:37:05;;;;;;;4.20;3.17;;;;;;;;;;5113371;28;20056;-62
2023/07/08 00:39:31;;;;;;;5.65;3.17;;;;;;;;;;5113107;28;20062;-61
2023/07/08 00:42:00;;;;;;;3.60;3.17;;;;;;;;;;5113418;28;20060;-61
2023/07/08 00:44:27;;;;;;;4.72;3.20;;;;;;;;;;5113007;28;20051;-61
2023/07/08 00:46:58;;;;;;;4.45;2.92;;;;;;;;;;5112614;28;20047;-62
2023/07/08 00:49:29;;;;;;;4.32;2.90;;;;;;;;;;5109358;28;20067;-62
2023/07/08 00:51:56;;;;;;;4.47;3.15;;;;;;;;;;5113240;28;20047;-61
2023/07/08 00:54:23;;;;;;;3.95;3.22;;;;;;;;;;5113093;28;20507;-62
2023/07/08 00:56:53;;;;;;;3.63;2.72;;;;;;;;;;5112926;28;20055;-62
2023/07/08 00:59:25;;;;;;;4.93;3.08;;;;;;;;;;5107592;28;20051;-62
2023/07/08 01:01:53;;;;;;;4.22;2.92;;;;;;;;;;5113225;28;20062;-62
2023/07/08 01:04:23;;;;;;;4.47;2.70;;;;;;;;;;5102605;28;20466;-61
2023/07/08 01:06:57;;;;;;;3.25;2.75;;;;;;;;;;5112916;28;20404;-61
2023/07/08 01:09:25;;;;;;;3.97;2.97;;;;;;;;;;5113004;28;20055;-62
2023/07/08 01:11:52;;;;;;;3.50;2.95;;;;;;;;;;5110051;28;20530;-61
2023/07/08 01:14:20;;;;;;;4.32;2.83;;;;;;;;;;5111173;28;20051;-62
2023/07/08 01:16:49;;;;;;;3.53;2.80;;;;;;;;;;5104459;28;20087;-62
2023/07/08 01:19:18;;;;;;;4.30;2.97;;;;;;;;;;5107583;28;20052;-62
2023/07/08 01:21:48;;;;;;;4.78;3.38;;;;;;;;;;5104214;28;20047;-61
2023/07/08 01:24:17;;;;;;;3.75;2.90;;;;;;;;;;5106565;28;20051;-61
2023/07/08 01:26:44;;;;;;;;;;;;;;;;;;5112426;28;20051;-62
2023/07/08 01:29:11;;;;;;;6.55;3.03;;;;;;;;;;5112754;28;20295;-62
2023/07/08 01:31:39;;;;;;;3.85;3.03;;;;;;;;;;5112786;28;20369;-61
2023/07/08 01:34:06;;;;;;;3.92;3.00;;;;;;;;;;5108797;28;20047;-62
2023/07/08 01:36:35;;;;;;;6.18;3.50;;;;;;;;;;5112664;28;20054;-62
2023/07/08 01:39:03;;;;;;;5.32;3.42;;;;;;;;;;5112685;28;20062;-61
2023/07/08 01:41:30;;;;;;;5.65;3.45;;;;;;;;;;5110726;28;20500;-61
2023/07/08 01:43:56;;;;;;;4.57;3.10;;;;;;;;;;5112583;28;20412;-61
2023/07/08 01:46:25;;;;;;;4.28;3.20;;;;;;;;;;5112463;28;20106;-62
2023/07/08 01:48:53;;;;;;;5.25;3.28;;;;;;;;;;5106503;28;20052;-61
2023/07/08 01:51:20;;;;;;;4.32;2.80;;;;;;;;;;5112390;28;20056;-62
2023/07/08 01:53:47;;;;;;;3.95;3.10;;;;;;;;;;5112776;28;20408;-61
2023/07/08 01:56:15;;;;;;;4.32;3.03;;;;;;;;;;5112188;28;20055;-61
2023/07/08 01:58:42;;;;;;;5.10;3.33;;;;;;;;;;5111293;28;20050;-62
2023/07/08 02:01:09;;;;;;;5.78;4.32;;;;;;;;;;5111683;28;20507;-62
2023/07/08 02:03:36;;;;;;;4.20;3.20;;;;;;;;;;5110378;28;20404;-62
2023/07/08 02:06:04;;;;;;;4.82;2.80;;;;;;;;;;5109701;28;20047;-61
2023/07/08 02:08:30;;;;;;;4.40;3.20;;;;;;;;;;5113297;28;20052;-62
2023/07/08 02:10:58;;;;;;;5.03;3.35;;;;;;;;;;5116143;28;20399;-61
2023/07/08 02:13:26;;;;;;;3.72;3.08;;;;;;;;;;5115735;28;20066;-61
2023/07/08 02:15:53;;;;;;;4.35;3.17;;;;;;;;;;5115603;28;20043;-61
2023/07/08 02:18:20;;;;;;;4.13;3.00;;;;;;;;;;5112398;28;20063;-61
2023/07/08 02:20:47;;;;;;;5.50;3.20;;;;;;;;;;5101231;28;20405;-61
2023/07/08 02:23:14;;;;;;;7.53;3.38;;;;;;;;;;5111105;28;20056;-61
2023/07/08 02:25:41;;;;;;;6.63;2.92;;;;;;;;;;5116081;28;20052;-61
2023/07/08 02:28:08;;;;;;;4.93;3.38;;;;;;;;;;5116007;28;20496;-61
2023/07/08 02:30:36;;;;;;;6.28;3.10;;;;;;;;;;5102401;28;20051;-61
2023/07/08 02:33:03;;;;;;;7.40;3.47;;;;;;;;;;5115368;28;20051;-61
2023/07/08 02:35:31;;;;;;;5.70;3.08;;;;;;;;;;5111057;28;20496;-61
2023/07/08 02:37:58;;;;;;;5.93;3.70;;;;;;;;;;5115576;28;20051;-61
2023/07/08 02:40:25;;;;;;;5.20;3.33;;;;;;;;;;5113838;28;20480;-60
2023/07/08 02:42:52;;;;;;;7.03;3.40;;;;;;;;;;5115524;28;20051;-62
2023/07/08 02:45:20;;;;;;;4.38;3.30;;;;;;;;;;5115141;28;20047;-61
2023/07/08 02:47:48;;;;;;;6.15;3.30;;;;;;;;;;5115353;28;20058;-61
2023/07/08 02:50:17;;;;;;;5.40;3.63;;;;;;;;;;5109372;28;20511;-60
2023/07/08 02:52:43;;;;;;;5.85;3.38;;;;;;;;;;5115292;28;20055;-60
2023/07/08 02:55:10;;;;;;;5.10;3.60;;;;;;;;;;5115127;28;20411;-60
2023/07/08 02:57:37;;;;;;;3.95;2.97;;;;;;;;;;5115838;28;20392;-65
2023/07/08 03:00:06;;;;;;;5.13;2.97;;;;;;;;;;5113410;28;20052;-64
2023/07/08 03:02:33;;;;;;;5.78;3.55;;;;;;;;;;5115383;28;20399;-65
2023/07/08 03:05:01;;;;;;;5.47;3.30;;;;;;;;;;5108868;28;20410;-64
2023/07/08 03:07:28;;;;;;;5.32;3.30;;;;;;;;;;5115259;28;20043;-64
2023/07/08 03:09:54;;;;;;;5.43;3.30;;;;;;;;;;5113052;28;20070;-64
2023/07/08 03:12:21;;;;;;;6.70;4.13;;;;;;;;;;5115094;28;20055;-65
2023/07/08 03:14:48;;;;;;;7.50;4.03;;;;;;;;;;5106698;28;20526;-64
2023/07/08 03:17:17;;;;;;;4.90;3.30;;;;;;;;;;5114659;28;20400;-64
2023/07/08 03:19:44;;;;;;;5.78;3.40;;;;;;;;;;5107754;28;20043;-64
2023/07/08 03:22:12;;;;;;;6.10;3.35;;;;;;;;;;5106334;28;20066;-64
2023/07/08 03:24:45;;;;;;;4.53;3.15;;;;;;;;;;5115048;28;20051;-64
2023/07/08 03:27:12;;;;;;;4.72;3.42;;;;;;;;;;5114621;28;20044;-64
2023/07/08 03:29:39;;;;;;;7.97;3.50;;;;;;;;;;5112081;28;20396;-65
2023/07/08 03:32:08;;;;;;;5.63;3.70;;;;;;;;;;5114530;28;20054;-65
2023/07/08 03:34:35;;;;;;;4.93;3.42;;;;;;;;;;5108163;28;20047;-64
2023/07/08 03:37:02;;;;;;;4.82;3.75;;;;;;;;;;5114236;28;20047;-64
2023/07/08 03:39:31;;;;;;;5.07;3.40;;;;;;;;;;5112570;28;20055;-64
2023/07/08 03:41:58;;;;;;;5.07;3.45;;;;;;;;;;5114812;28;20480;-64
2023/07/08 03:44:25;;;;;;;5.22;3.15;;;;;;;;;;5114065;28;20055;-64
2023/07/08 03:46:51;;;;;;;4.65;3.45;;;;;;;;;;5114382;28;20055;-64
2023/07/08 03:49:21;;;;;;;8.35;3.65;;;;;;;;;;5109068;28;20480;-64
2023/07/08 03:51:49;;;;;;;5.28;3.22;;;;;;;;;;5105755;28;20047;-64
2023/07/08 03:54:16;;;;;;;6.38;3.47;;;;;;;;;;5114338;28;20063;-65
2023/07/08 03:56:44;;;;;;;6.05;3.78;;;;;;;;;;5113928;28;20044;-64
2023/07/08 03:59:11;;;;;;;5.60;3.70;;;;;;;;;;5111511;28;20047;-64
2023/07/08 04:01:41;;;;;;;6.63;3.40;;;;;;;;;;5108768;28;20063;-64
2023/07/08 04:04:07;;;;;;;;;;;;;;;;;;5102343;28;20412;-65
2023/07/08 04:06:34;;;;;;;5.43;3.50;;;;;;;;;;5098142;28;19920;-64
2023/07/08 04:09:01;;;;;;;6.53;3.90;;;;;;;;;;5110848;28;20047;-64
2023/07/08 04:11:27;;;;;;;4.95;3.40;;;;;;;;;;5113816;28;20048;-65
2023/07/08 04:13:55;;;;;;;6.80;3.95;;;;;;;;;;5110764;28;20389;-65
2023/07/08 04:16:24;;;;;;;4.57;3.47;;;;;;;;;;5111877;28;20054;-64
2023/07/08 04:18:53;;;;;;;5.45;3.72;;;;;;;;;;5113116;28;20062;-64
2023/07/08 04:21:20;;;;;;;6.82;3.95;;;;;;;;;;5099004;28;20417;-64
2023/07/08 04:23:47;;;;;;;6.80;4.18;;;;;;;;;;5113305;28;20396;-65
2023/07/08 04:26:14;;;;;;;4.03;3.22;;;;;;;;;;5109305;28;20073;-64
2023/07/08 04:28:42;;;;;;;6.47;4.13;;;;;;;;;;5092599;28;20063;-64
2023/07/08 04:31:11;;;;;;;10.17;4.10;;;;;;;;;;5092875;28;20067;-65
2023/07/08 04:33:37;;;;;;;7.25;3.80;;;;;;;;;;5093055;28;20052;-64
2023/07/08 04:36:04;;;;;;;6.03;3.58;;;;;;;;;;5105008;28;20051;-64
2023/07/08 04:38:32;;;;;;;6.20;3.60;;;;;;;;;;5112836;28;20055;-64
2023/07/08 04:40:59;;;;;;;4.65;3.80;;;;;;;;;;5113237;28;20388;-64
2023/07/08 04:43:28;;;;;;;4.65;3.47;;;;;;;;;;5113248;28;20052;-64
2023/07/08 04:45:55;;;;;;;7.40;3.40;;;;;;;;;;5111177;28;20058;-64
2023/07/08 04:48:25;;;;;;;7.47;4.18;;;;;;;;;;5113028;28;20058;-65
2023/07/08 04:50:52;;;;;;;5.28;3.78;;;;;;;;;;5101144;28;20055;-64
2023/07/08 04:53:19;;;;;;;5.35;3.92;;;;;;;;;;5113069;28;20047;-65
2023/07/08 04:55:47;;;;;;;8.40;3.92;;;;;;;;;;5099370;28;20052;-64
2023/07/08 04:58:14;;;;;;;7.70;3.85;;;;;;;;;;5110509;28;20048;-64
2023/07/08 05:00:40;;;;;;;6.28;3.90;;;;;;;;;;5112630;28;20052;-64
2023/07/08 05:03:07;;;;;;;4.22;3.38;;;;;;;;;;5112616;28;20047;-64
2023/07/08 05:05:35;;;;;;;6.10;4.10;;;;;;;;;;5088221;28;20059;-64
2023/07/08 05:08:02;;;;;;;5.90;4.00;;;;;;;;;;5104548;28;20048;-64
2023/07/08 05:10:29;;;;;;;8.38;4.03;;;;;;;;;;5072417;28;20055;-64
2023/07/08 05:12:56;;;;;;;7.78;4.10;;;;;;;;;;5072741;28;20049;-64
2023/07/08 05:15:23;;;;;;;5.18;3.55;;;;;;;;;;5077981;28;20513;-64
2023/07/08 05:17:51;;;;;;;5.20;3.90;;;;;;;;;;5112450;28;20047;-65
2023/07/08 05:20:18;;;;;;;6.18;3.78;;;;;;;;;;5108151;28;20049;-65
2023/07/08 05:22:46;;;;;;;5.18;4.18;;;;;;;;;;5104462;28;20521;-65
2023/07/08 05:25:14;;;;;;;7.57;3.73;;;;;;;;;;5110173;28;20058;-64
2023/07/08 05:27:40;;;;;;;5.93;3.33;;;;;;;;;;5110723;28;20365;-64
2023/07/08 05:30:08;;;;;;;5.40;3.80;;;;;;;;;;5112451;28;20051;-65
2023/07/08 05:32:35;;;;;;;5.45;3.63;;;;;;;;;;5113248;28;20048;-65
2023/07/08 05:35:01;;;;;;;6.10;4.20;;;;;;;;;;5116339;28;20052;-65
2023/07/08 05:37:29;;;;;;;5.85;3.88;;;;;;;;;;5114171;28;20054;-66
2023/07/08 05:39:59;;;;;;;6.22;5.43;;;;;;;;;;5116174;28;20078;-61
2023/07/08 05:42:27;;;;;;;6.65;3.78;;;;;;;;;;5116889;28;20165;-62
2023/07/08 05:44:54;;;;;;;4.97;3.72;;;;;;;;;;5116486;28;20389;-61
2023/07/08 05:47:22;;;;;;;6.07;3.85;;;;;;;;;;5112039;28;20055;-61
2023/07/08 05:49:49;;;;;;;8.40;3.72;;;;;;;;;;5116326;28;20146;-61
2023/07/08 05:52:15;;;;;;;7.32;4.10;;;;;;;;;;5112730;28;20074;-61
2023/07/08 05:54:42;;;;;;;7.13;3.90;;;;;;;;;;5116168;28;20055;-63
2023/07/08 05:57:11;;;;;;;7.28;3.67;;;;;;;;;;5103023;28;20044;-61
2023/07/08 05:59:38;;;;;;;7.88;4.30;;;;;;;;;;5116444;28;20052;-62
2023/07/08 06:02:06;;;;;;;6.07;3.70;;;;;;;;;;5116340;28;20047;-61
2023/07/08 06:04:33;;;;;;;5.40;3.60;;;;;;;;;;5105766;28;20055;-62
2023/07/08 06:07:00;;;;;;;4.72;3.40;;;;;;;;;;5095459;28;20054;-62
2023/07/08 06:09:27;;;;;;;5.40;3.47;;;;;;;;;;5115897;28;20130;-62
2023/07/08 06:11:54;;;;;;;4.03;3.45;;;;;;;;;;5116205;28;20058;-62
2023/07/08 06:14:22;;;;;;;6.00;3.30;;;;;;;;;;5116057;28;20476;-62
2023/07/08 06:16:49;;;;;;;5.82;3.60;;;;;;;;;;5114010;28;20070;-62
2023/07/08 06:19:17;;;;;;;5.53;3.67;;;;;;;;;;5115882;28;20047;-62
2023/07/08 06:21:44;;;;;;;5.80;4.18;;;;;;;;;;5101147;28;20048;-62
2023/07/08 06:24:10;;;;;;;7.30;4.00;;;;;;;;;;5116123;28;20052;-62
2023/07/08 06:26:37;;;;;;;8.63;4.43;;;;;;;;;;5111603;28;20408;-61
2023/07/08 06:29:04;;;;;;;5.55;3.97;;;;;;;;;;5115317;28;20051;-61
2023/07/08 06:31:33;;;;;;;5.30;3.90;;;;;;;;;;5115652;28;20052;-61
2023/07/08 06:34:00;;;;;;;6.50;3.57;;;;;;;;;;5115508;28;20074;-61
2023/07/08 06:36:27;;;;;;;4.65;3.47;;;;;;;;;;5111403;28;20054;-62
2023/07/08 06:38:54;;;;;;;5.45;3.83;;;;;;;;;;5115223;28;20047;-61
2023/07/08 06:41:20;;;;;;;8.02;3.80;;;;;;;;;;5115366;28;20051;-61
2023/07/08 06:43:48;;;;;;;5.22;3.88;;;;;;;;;;5107515;28;20055;-62
2023/07/08 06:46:14;;;;;;;4.95;3.75;;;;;;;;;;5110260;28;20047;-61
2023/07/08 06:48:42;;;;;;;5.75;3.70;;;;;;;;;;5115490;28;20044;-61
2023/07/08 06:51:09;;;;;;;4.88;3.30;;;;;;;;;;5111410;28;20052;-62
2023/07/08 06:53:36;;;;;;;5.43;3.45;;;;;;;;;;5109221;28;20075;-62
2023/07/08 06:56:03;;;;;;;4.82;4.00;;;;;;;;;;5115389;28;20055;-62
2023/07/08 06:58:30;;;;;;;6.32;3.80;;;;;;;;;;5114961;28;20399;-62
2023/07/08 07:00:56;;;;;;;3.22;2.92;;;;;;;;;;5113539;28;20051;-62
2023/07/08 07:03:24;;;;;;;4.70;3.17;;;;;;;;;;5114008;28;20063;-62
2023/07/08 07:05:52;;;;;;;4.68;3.20;;;;;;;;;;5109345;28;20051;-62
2023/07/08 07:08:19;;;;;;;7.65;3.13;;;;;;;;;;5115036;28;20051;-62
2023/07/08 07:10:46;;;;;;;4.95;3.17;;;;;;;;;;5110060;28;20047;-62
2023/07/08 07:13:13;;;;;;;5.90;3.85;;;;;;;;;;5114849;28;20060;-61
2023/07/08 07:15:39;;;;;;;5.57;3.58;;;;;;;;;;5114522;28;20055;-61
2023/07/08 07:18:06;;;;;;;6.47;4.38;;;;;;;;;;5113953;28;20047;-62
2023/07/08 07:20:33;;;;;;;5.20;4.07;;;;;;;;;;5108013;28;20070;-61
2023/07/08 07:23:01;;;;;;;5.93;4.22;;;;;;;;;;5104578;28;20059;-61
2023/07/08 07:25:28;;;;;;;5.88;4.53;;;;;;;;;;5111475;28;20400;-61
2023/07/08 07:27:55;;;;;;;6.85;4.10;;;;;;;;;;5112878;28;20059;-62
2023/07/08 07:30:22;;;;;;;5.47;4.00;;;;;;;;;;5114386;28;20060;-61
2023/07/08 07:32:48;;;;;;;6.70;4.43;;;;;;;;;;5113777;28;20062;-62
2023/07/08 07:35:16;;;;;;;5.28;4.22;;;;;;;;;;5112068;28;20059;-62
2023/07/08 07:37:43;;;;;;;6.78;4.20;;;;;;;;;;5105067;28;20476;-62
2023/07/08 07:40:14;;;;;;;5.45;4.22;;;;;;;;;;5113758;28;20055;-62
2023/07/08 07:42:41;;;;;;;5.28;4.00;;;;;;;;;;5114359;28;20502;-62
2023/07/08 07:45:09;;;;;;;6.20;4.30;;;;;;;;;;5102493;28;20056;-62
2023/07/08 07:47:36;;;;;;;5.38;4.40;;;;;;;;;;5112931;28;20054;-62
2023/07/08 07:50:03;;;;;;;6.38;4.30;;;;;;;;;;5114183;28;20055;-62
2023/07/08 07:52:30;;;;;;;5.75;3.85;;;;;;;;;;5110323;28;20070;-62
2023/07/08 07:54:57;;;;;;;8.50;4.18;;;;;;;;;;5114219;28;20172;-62
2023/07/08 07:57:25;;;;;;;6.20;4.38;;;;;;;;;;5109594;28;20058;-61
2023/07/08 07:59:52;;;;;;;6.30;4.30;;;;;;;;;;5113726;28;20055;-61
2023/07/08 08:02:19;;;;;;;7.32;4.50;;;;;;;;;;5114191;28;20392;-62
2023/07/08 08:04:46;;;;;;;6.85;4.78;;;;;;;;;;5101476;28;20408;-61
2023/07/08 08:07:13;;;;;;;6.97;4.43;;;;;;;;;;5102636;28;20055;-62
2023/07/08 08:09:40;;;;;;;6.60;4.22;;;;;;;;;;5107633;28;20480;-62
2023/07/08 08:12:08;;;;;;;7.18;4.38;;;;;;;;;;5112777;28;20055;-62
2023/07/08 08:14:36;;;;;;;5.87;4.53;;;;;;;;;;5113592;28;20062;-67
2023/07/08 08:17:04;;;;;;;6.38;4.53;;;;;;;;;;5111679;28;20082;-67
2023/07/08 08:19:31;;;;;;;5.80;4.53;;;;;;;;;;5113037;28;20054;-67
2023/07/08 08:21:57;;;;;;;8.10;4.90;;;;;;;;;;5096224;28;20056;-67
2023/07/08 08:24:24;;;;;;;6.85;4.10;;;;;;;;;;5113559;28;20051;-67
2023/07/08 08:26:51;;;;;;;6.78;4.25;;;;;;;;;;5113323;28;20514;-67
2023/07/08 08:29:18;;;;;;;6.57;4.35;;;;;;;;;;5113438;28;20503;-68
2023/07/08 08:31:46;;;;;;;7.38;4.72;;;;;;;;;;5113061;28;20047;-62
2023/07/08 08:34:13;;;;;;;8.43;5.03;;;;;;;;;;5111917;28;20055;-63
2023/07/08 08:36:39;;;;;;;7.25;4.53;;;;;;;;;;5105783;28;20047;-63
2023/07/08 08:39:06;;;;;;;5.18;4.68;;;;;;;;;;5107141;28;20055;-63
2023/07/08 08:41:35;;;;;;;6.72;4.60;;;;;;;;;;5109759;28;20063;-63
2023/07/08 08:44:03;;;;;;;6.50;5.07;;;;;;;;;;5104539;28;20062;-63
2023/07/08 08:46:33;;;;;;;6.03;4.93;;;;;;;;;;5112664;28;20106;-63
2023/07/08 08:49:05;;;;;;;6.30;4.60;;;;;;;;;;5107863;28;20043;-62
2023/07/08 08:51:33;;;;;;;6.05;4.63;;;;;;;;;;5108802;28;20056;-63
2023/07/08 08:54:00;;;;;;;6.75;4.75;;;;;;;;;;5112506;28;20506;-62
2023/07/08 08:56:29;;;;;;;6.28;4.72;;;;;;;;;;5112743;28;20372;-63
2023/07/08 08:58:59;;;;;;;4.72;4.10;;;;;;;;;;5104653;28;20056;-63
2023/07/08 09:01:26;;;;;;;5.07;4.43;;;;;;;;;;5106808;28;20055;-63
2023/07/08 09:03:55;;;;;;;7.75;4.70;;;;;;;;;;5107978;28;20048;-63
2023/07/08 09:06:24;;;;;;;8.23;4.43;;;;;;;;;;5089410;28;20055;-63
2023/07/08 09:08:51;;;;;;;5.07;4.43;;;;;;;;;;5102965;28;20047;-63
2023/07/08 09:11:36;;;;;;;5.22;4.72;;;;;;;;;;5112619;28;20508;-63
2023/07/08 09:14:03;;;;;;;5.25;4.50;;;;;;;;;;5106159;28;20055;-63
2023/07/08 09:16:35;;;;;;;6.55;4.72;;;;;;;;;;5111807;28;20063;-63
2023/07/08 09:19:07;;;;;;;6.30;4.60;;;;;;;;;;5110429;28;20054;-63
2023/07/08 09:21:38;;;;;;;5.57;4.65;;;;;;;;;;5101806;28;20052;-63
2023/07/08 09:24:08;;;;;;;8.00;5.38;;;;;;;;;;5112021;28;20052;-64
2023/07/08 09:26:36;;;;;;;6.05;4.82;;;;;;;;;;5107714;28;20437;-64
2023/07/08 09:29:08;;;;;;;5.72;4.65;;;;;;;;;;5102109;28;20066;-63
2023/07/08 09:31:38;;;;;;;5.45;4.95;;;;;;;;;;5112783;28;20052;-64
2023/07/08 09:34:09;;;;;;;6.45;4.93;;;;;;;;;;5112472;28;20047;-64
2023/07/08 09:36:40;;;;;;;5.13;4.38;;;;;;;;;;5112536;28;20063;-63
2023/07/08 09:39:10;;;;;;;6.45;4.80;;;;;;;;;;5108542;28;20044;-64
2023/07/08 09:41:37;;;;;;;5.45;4.40;;;;;;;;;;5112421;28;20055;-64
2023/07/08 09:44:05;;;;;;;4.97;4.47;;;;;;;;;;5112927;28;20059;-64
2023/07/08 09:46:31;;;;;;;;;;;;;;;;;;5111550;28;21059;-61
2023/07/08 09:48:58;;;;;;;5.65;5.15;;;;;;;;;;5112584;28;19920;-63
2023/07/08 09:51:25;;;;;;;5.77;4.83;;;;;;;;;;5112481;28;20054;-63
2023/07/08 09:53:53;;;;;;;5.97;5.00;;;;;;;;;;5107252;28;20047;-64
2023/07/08 09:56:20;;;;;;;5.88;4.88;;;;;;;;;;5112032;28;20433;-61
2023/07/08 09:58:49;;;;;;;8.10;5.00;;;;;;;;;;5112097;28;20051;-64
2023/07/08 10:01:18;;;;;;;6.10;4.45;;;;;;;;;;5112773;28;20052;-61
2023/07/08 10:03:47;;;;;;;5.57;4.50;;;;;;;;;;5107225;28;20047;-64
2023/07/08 10:06:17;;;;;;;4.53;4.13;;;;;;;;;;5091998;28;20055;-61
2023/07/08 10:08:44;;;;;;;5.43;3.83;;;;;;;;;;5090275;28;20059;-61
2023/07/08 10:11:21;;;;;;;5.28;3.88;;;;;;;;;;5106476;28;20415;-61
2023/07/08 10:13:49;;;;;;;4.55;4.15;;;;;;;;;;5112535;28;20389;-61
2023/07/08 10:16:17;;;;;;;5.45;4.07;;;;;;;;;;5111797;28;20075;-62
2023/07/08 10:18:44;;;;;;;4.63;3.63;;;;;;;;;;5112156;28;20472;-61
2023/07/08 10:21:15;;;;;;;4.50;4.00;;;;;;;;;;5106486;28;20055;-61
2023/07/08 10:23:48;;;;;;;4.03;3.63;;;;;;;;;;5100713;28;20377;-61
2023/07/08 10:26:21;;;;;;;5.25;3.60;;;;;;;;;;5115756;28;20058;-61
2023/07/08 10:28:52;;;;;;;3.97;3.58;;;;;;;;;;5115793;28;20052;-62
2023/07/08 10:31:29;;;;;;;4.43;3.92;;;;;;;;;;5115562;28;20380;-61
2023/07/08 10:46:17;;;;;;;5.18;3.45;;;;;;;;;;5103744;28;20032;-62
2023/07/08 10:48:51;;;;;;;4.13;3.38;;;;;;;;;;5115485;28;20511;-61
2023/07/08 10:51:23;;;;;;;3.65;2.85;;;;;;;;;;5115373;28;20048;-62
2023/07/08 10:53:57;;;;;;;3.80;3.10;;;;;;;;;;5112114;28;20047;-61
2023/07/08 10:56:27;;;;;;;5.35;3.72;;;;;;;;;;5111185;28;20052;-62
2023/07/08 10:59:06;;;;;;;4.13;3.47;;;;;;;;;;5114896;28;20078;-62
2023/07/08 11:01:37;;;;;;;3.90;3.40;;;;;;;;;;5114924;28;20055;-62
2023/07/08 11:04:13;;;;;;;3.60;3.30;;;;;;;;;;5108668;28;20527;-62
2023/07/08 11:06:46;;;;;;;4.43;3.60;;;;;;;;;;5093211;28;20052;-62
2023/07/08 11:09:15;;;;;;;6.82;3.75;;;;;;;;;;5114980;28;20388;-62
2023/07/08 11:11:46;;;;;;;4.07;3.55;;;;;;;;;;5114758;28;20457;-62
2023/07/08 11:14:15;;;;;;;4.10;3.58;;;;;;;;;;5108624;28;20489;-62
2023/07/08 11:16:46;;;;;;;5.32;3.70;;;;;;;;;;5112463;28;20063;-63
2023/07/08 11:19:16;;;;;;;5.07;3.90;;;;;;;;;;5114762;28;20047;-63
2023/07/08 11:21:45;;;;;;;3.97;3.22;;;;;;;;;;5101457;28;20503;-63
2023/07/08 11:24:14;;;;;;;6.28;3.67;;;;;;;;;;5114492;28;20084;-63
2023/07/08 11:26:43;;;;;;;4.90;3.75;;;;;;;;;;5112570;28;20054;-62
2023/07/08 11:29:15;;;;;;;4.65;3.53;;;;;;;;;;5109170;28;20047;-63
2023/07/08 11:31:42;;;;;;;4.00;3.50;;;;;;;;;;5114202;28;20499;-63
2023/07/08 11:34:12;;;;;;;3.50;3.20;;;;;;;;;;5114566;28;20059;-63
2023/07/08 11:36:40;;;;;;;4.57;3.70;;;;;;;;;;5109676;28;20052;-63
2023/07/08 11:39:26;;;;;;;4.13;3.72;;;;;;;;;;5114343;28;20055;-66
2023/07/08 11:41:55;;;;;;;3.78;3.35;;;;;;;;;;5115006;28;20048;-66
2023/07/08 11:44:22;;;;;;;3.85;3.47;;;;;;;;;;5113909;28;20051;-66
2023/07/08 11:46:48;;;;;;;;;;;;;;;;;;5113050;28;20059;-66
2023/07/08 11:49:16;;;;;;;4.18;3.58;;;;;;;;;;5113878;28;19934;-66
2023/07/08 11:51:45;;;;;;;5.47;3.83;;;;;;;;;;5107060;28;20052;-66
2023/07/08 11:54:13;;;;;;;4.03;3.55;;;;;;;;;;5107376;28;20047;-67
2023/07/08 11:56:48;;;;;;;4.35;3.88;;;;;;;;;;5113812;28;20047;-66
2023/07/08 11:59:17;;;;;;;3.83;3.42;;;;;;;;;;5114030;28;20052;-67
2023/07/08 12:01:48;;;;;;;4.18;3.78;;;;;;;;;;5114088;28;20055;-67
2023/07/08 12:04:27;;;;;;;5.07;3.60;;;;;;;;;;5109312;28;20381;-66
2023/07/08 12:07:02;;;;;;;3.95;3.20;;;;;;;;;;5107647;28;20063;-66
2023/07/08 12:09:30;;;;;;;4.63;3.20;;;;;;;;;;5111964;28;20052;-66
2023/07/08 12:12:00;;;;;;;6.35;3.90;;;;;;;;;;5106363;28;20076;-66
2023/07/08 12:14:27;;;;;;;3.92;3.13;;;;;;;;;;5112995;28;20504;-67
2023/07/08 12:16:55;;;;;;;3.80;3.33;;;;;;;;;;5113635;28;20481;-66
2023/07/08 12:19:25;;;;;;;4.43;3.22;;;;;;;;;;5113738;28;20055;-67
2023/07/08 12:21:52;;;;;;;4.75;3.55;;;;;;;;;;5094591;28;20412;-66
2023/07/08 12:24:25;;;;;;;3.63;3.33;;;;;;;;;;5113244;28;20063;-66
2023/07/08 12:26:51;;;;;;;4.43;3.38;;;;;;;;;;5113702;28;20063;-66
2023/07/08 12:29:18;;;;;;;4.38;3.42;;;;;;;;;;5108149;28;20051;-66
2023/07/08 12:31:46;;;;;;;7.25;3.53;;;;;;;;;;5103899;28;20048;-67
2023/07/08 12:34:16;;;;;;;4.75;3.50;;;;;;;;;;5113620;28;20464;-66
2023/07/08 12:36:45;;;;;;;3.00;2.70;;;;;;;;;;5099825;28;20131;-66
2023/07/08 12:39:15;;;;;;;4.03;3.58;;;;;;;;;;5110180;28;20059;-66
2023/07/08 12:41:42;;;;;;;4.00;3.40;;;;;;;;;;5113164;28;20043;-66
2023/07/08 12:44:09;;;;;;;;;;;;;;;;;;5113176;28;20372;-66
2023/07/08 12:46:37;;;;;;;4.32;3.25;;;;;;;;;;5111733;28;19927;-66
2023/07/08 12:49:07;;;;;;;3.95;3.55;;;;;;;;;;5113150;28;20051;-67
2023/07/08 12:51:39;;;;;;;3.75;3.08;;;;;;;;;;5099730;28;20404;-66
2023/07/08 12:54:10;;;;;;;4.72;3.42;;;;;;;;;;5113203;28;20047;-67
2023/07/08 12:59:40;;;;;;;7.20;3.50;;;;;;;;;;5119158;28;20023;-67
2023/07/08 13:02:20;;;;;;;4.57;3.53;;;;;;;;;;5113518;28;20058;-69
2023/07/08 13:04:47;;;;;;;4.38;3.58;;;;;;;;;;5100434;28;20391;-67
2023/07/08 13:07:22;;;;;;;6.47;3.13;;;;;;;;;;5103254;28;20056;-67
2023/07/08 13:09:51;;;;;;;3.67;3.03;;;;;;;;;;5112581;28;20059;-66
2023/07/08 13:12:23;;;;;;;4.03;3.60;;;;;;;;;;5113193;28;20484;-66
2023/07/08 13:14:50;;;;;;;3.75;3.08;;;;;;;;;;5112350;28;20051;-66
2023/07/08 13:17:17;;;;;;;;;;;;;;;;;;5111745;28;20056;-66
2023/07/08 13:19:45;;;;;;;4.50;3.30;;;;;;;;;;5112522;28;19938;-66
2023/07/08 13:22:17;;;;;;;3.47;3.05;;;;;;;;;;5107145;28;20044;-66
2023/07/08 13:24:44;;;;;;;5.15;3.78;;;;;;;;;;5112182;28;20060;-66
2023/07/08 13:27:17;;;;;;;4.78;3.60;;;;;;;;;;5096248;28;20055;-66
2023/07/08 13:35:52;;;;;;;4.88;3.83;;;;;;;;;;5116269;28;20031;-67
2023/07/08 13:38:21;;;;;;;5.50;3.17;;;;;;;;;;5110773;28;20059;-66
2023/07/08 13:40:49;;;;;;;5.28;3.25;;;;;;;;;;5104152;28;20055;-66
2023/07/08 13:43:23;;;;;;;4.43;3.53;;;;;;;;;;5105264;28;20445;-67
2023/07/08 13:45:52;;;;;;;4.32;3.15;;;;;;;;;;5111068;28;20052;-66
2023/07/08 13:48:22;;;;;;;4.55;3.45;;;;;;;;;;5109237;28;20051;-63
2023/07/08 13:50:52;;;;;;;3.58;3.17;;;;;;;;;;5112626;28;20044;-64
2023/07/08 13:53:23;;;;;;;6.18;3.67;;;;;;;;;;5107617;28;20056;-64
2023/07/08 13:55:59;;;;;;;4.78;3.67;;;;;;;;;;5116525;28;20063;-65
2023/07/08 13:58:43;;;;;;;4.38;3.65;;;;;;;;;;5116494;28;20055;-66
2023/07/08 14:01:15;;;;;;;3.97;3.50;;;;;;;;;;5113805;28;20055;-67
2023/07/08 14:03:42;;;;;;;4.07;3.03;;;;;;;;;;5111482;28;20052;-66
2023/07/08 14:06:12;;;;;;;4.05;3.35;;;;;;;;;;5095972;28;20489;-66
2023/07/08 14:08:39;;;;;;;3.97;3.38;;;;;;;;;;5112992;28;20058;-67
2023/07/08 14:11:06;;;;;;;4.85;3.33;;;;;;;;;;5116040;28;20472;-64
2023/07/08 14:13:37;;;;;;;4.95;3.25;;;;;;;;;;5114606;28;20051;-64
2023/07/08 14:16:07;;;;;;;5.82;3.60;;;;;;;;;;5115817;28;20047;-63
2023/07/08 14:18:33;;;;;;;5.35;3.60;;;;;;;;;;5115884;28;20345;-64
2023/07/08 14:21:00;;;;;;;6.22;4.05;;;;;;;;;;5116112;28;20055;-64
2023/07/08 14:23:30;;;;;;;3.97;3.58;;;;;;;;;;5102522;28;20051;-64
2023/07/08 14:26:00;;;;;;;6.18;3.70;;;;;;;;;;5114692;28;20492;-64
2023/07/08 14:28:27;;;;;;;4.75;3.90;;;;;;;;;;5115802;28;20392;-63
2023/07/08 14:30:55;;;;;;;4.38;3.90;;;;;;;;;;5114346;28;20407;-63
2023/07/08 14:33:22;;;;;;;5.60;4.30;;;;;;;;;;5112344;28;20056;-64
2023/07/08 14:35:49;;;;;;;5.32;4.07;;;;;;;;;;5107010;28;20051;-63
2023/07/08 14:38:22;;;;;;;6.57;4.70;;;;;;;;;;5111212;28;20051;-63
2023/07/08 14:40:49;;;;;;;5.85;4.45;;;;;;;;;;5107341;28;20388;-64
2023/07/08 14:43:18;;;;;;;5.53;3.85;;;;;;;;;;5113977;28;20051;-63
2023/07/08 14:45:52;;;;;;;5.82;4.40;;;;;;;;;;5115026;28;20058;-62
2023/07/08 14:48:20;;;;;;;5.57;3.80;;;;;;;;;;5111495;28;20510;-63
2023/07/08 14:50:50;;;;;;;5.78;3.90;;;;;;;;;;5115146;28;20048;-63
2023/07/08 14:53:21;;;;;;;5.68;4.10;;;;;;;;;;5111293;28;20052;-64
2023/07/08 14:55:52;;;;;;;5.30;3.78;;;;;;;;;;5114817;28;20048;-63
2023/07/08 14:58:22;;;;;;;5.85;3.88;;;;;;;;;;5113392;28;20050;-63
2023/07/08 15:00:48;;;;;;;4.97;4.05;;;;;;;;;;5115119;28;20357;-63
2023/07/08 15:03:15;;;;;;;5.18;4.05;;;;;;;;;;5113922;28;20047;-63
2023/07/08 15:05:44;;;;;;;7.05;3.90;;;;;;;;;;5111133;28;20059;-64
2023/07/08 15:08:11;;;;;;;6.60;3.90;;;;;;;;;;5102357;28;20199;-63
2023/07/08 15:10:39;;;;;;;5.97;4.32;;;;;;;;;;5107512;28;20043;-63
2023/07/08 15:13:08;;;;;;;6.05;4.55;;;;;;;;;;5114785;28;20056;-64